sensor_id;sensor_type;location;lat;lon;timestamp;P1;durP1;ratioP1;P2;durP2;ratioP2
72408;SDS011;60402;48.082;11.628;2023-06-26T00:00:07;10.93;;;5.72;;
72408;SDS011;60402;48.082;11.628;2023-06-26T00:02:53;11.15;;;5.50;;
72408;SDS011;60402;48.082;11.628;2023-06-26T00:05:39;10.48;;;5.55;;
72408;SDS011;60402;48.082;11.628;2023-06-26T00:08:26;9.38;;;5.30;;
72408;SDS011;60402;48.082;11.628;2023-06-26T00:11:12;9.90;;;5.00;;
72408;SDS011;60402;48.082;11.628;2023-06-26T00:13:57;12.05;;;5.88;;
72408;SDS011;60402;48.082;11.628;2023-06-26T00:16:45;10.75;;;5.50;;
72408;SDS011;60402;48.082;11.628;2023-06-26T00:19:31;9.88;;;5.40;;
72408;SDS011;60402;48.082;11.628;2023-06-26T00:22:16;11.02;;;5.60;;
72408;SDS011;60402;48.082;11.628;2023-06-26T00:25:02;10.70;;;5.60;;
72408;SDS011;60402;48.082;11.628;2023-06-26T00:27:48;10.65;;;5.38;;
72408;SDS011;60402;48.082;11.628;2023-06-26T00:30:34;11.10;;;5.40;;
72408;SDS011;60402;48.082;11.628;2023-06-26T00:33:19;11.27;;;5.70;;
72408;SDS011;60402;48.082;11.628;2023-06-26T00:36:05;10.20;;;4.82;;
72408;SDS011;60402;48.082;11.628;2023-06-26T00:38:50;10.48;;;5.13;;
72408;SDS011;60402;48.082;11.628;2023-06-26T00:41:36;9.98;;;5.35;;
72408;SDS011;60402;48.082;11.628;2023-06-26T00:44:22;10.73;;;5.82;;
72408;SDS011;60402;48.082;11.628;2023-06-26T00:47:09;10.82;;;5.45;;
72408;SDS011;60402;48.082;11.628;2023-06-26T00:49:58;11.32;;;5.80;;
72408;SDS011;60402;48.082;11.628;2023-06-26T00:52:44;9.80;;;5.43;;
72408;SDS011;60402;48.082;11.628;2023-06-26T00:55:30;10.63;;;5.15;;
72408;SDS011;60402;48.082;11.628;2023-06-26T00:58:15;10.85;;;5.18;;
72408;SDS011;60402;48.082;11.628;2023-06-26T01:01:01;12.60;;;5.93;;
72408;SDS011;60402;48.082;11.628;2023-06-26T01:03:48;9.32;;;4.85;;
72408;SDS011;60402;48.082;11.628;2023-06-26T01:06:37;10.85;;;5.65;;
72408;SDS011;60402;48.082;11.628;2023-06-26T01:09:23;9.95;;;5.18;;
72408;SDS011;60402;48.082;11.628;2023-06-26T01:12:09;10.20;;;5.30;;
72408;SDS011;60402;48.082;11.628;2023-06-26T01:14:54;10.88;;;5.82;;
72408;SDS011;60402;48.082;11.628;2023-06-26T01:17:40;10.88;;;5.32;;
72408;SDS011;60402;48.082;11.628;2023-06-26T01:20:31;11.57;;;5.47;;
72408;SDS011;60402;48.082;11.628;2023-06-26T01:23:24;10.57;;;5.68;;
72408;SDS011;60402;48.082;11.628;2023-06-26T01:26:33;11.00;;;5.63;;
72408;SDS011;60402;48.082;11.628;2023-06-26T01:29:20;9.60;;;4.93;;
72408;SDS011;60402;48.082;11.628;2023-06-26T01:32:08;11.23;;;5.32;;
72408;SDS011;60402;48.082;11.628;2023-06-26T01:34:54;9.18;;;4.90;;
72408;SDS011;60402;48.082;11.628;2023-06-26T01:37:41;9.52;;;5.07;;
72408;SDS011;60402;48.082;11.628;2023-06-26T01:40:26;9.98;;;4.85;;
72408;SDS011;60402;48.082;11.628;2023-06-26T01:43:20;9.73;;;4.75;;
72408;SDS011;60402;48.082;11.628;2023-06-26T01:46:23;10.77;;;4.90;;
72408;SDS011;60402;48.082;11.628;2023-06-26T01:55:05;9.43;;;5.20;;
72408;SDS011;60402;48.082;11.628;2023-06-26T01:57:57;9.85;;;4.78;;
72408;SDS011;60402;48.082;11.628;2023-06-26T02:00:43;10.13;;;5.05;;
72408;SDS011;60402;48.082;11.628;2023-06-26T02:03:29;9.77;;;4.90;;
72408;SDS011;60402;48.082;11.628;2023-06-26T02:06:15;10.25;;;5.47;;
72408;SDS011;60402;48.082;11.628;2023-06-26T02:09:01;9.63;;;4.88;;
72408;SDS011;60402;48.082;11.628;2023-06-26T02:11:47;8.32;;;4.90;;
72408;SDS011;60402;48.082;11.628;2023-06-26T02:14:33;9.73;;;5.30;;
72408;SDS011;60402;48.082;11.628;2023-06-26T02:17:18;10.30;;;5.28;;
72408;SDS011;60402;48.082;11.628;2023-06-26T02:20:04;10.15;;;5.22;;
72408;SDS011;60402;48.082;11.628;2023-06-26T02:22:51;9.98;;;5.00;;
72408;SDS011;60402;48.082;11.628;2023-06-26T02:25:37;10.65;;;5.18;;
72408;SDS011;60402;48.082;11.628;2023-06-26T02:28:22;9.15;;;4.85;;
72408;SDS011;60402;48.082;11.628;2023-06-26T02:31:08;11.70;;;5.35;;
72408;SDS011;60402;48.082;11.628;2023-06-26T02:33:53;9.52;;;4.55;;
72408;SDS011;60402;48.082;11.628;2023-06-26T02:36:39;10.77;;;4.63;;
72408;SDS011;60402;48.082;11.628;2023-06-26T02:39:25;10.05;;;4.85;;
72408;SDS011;60402;48.082;11.628;2023-06-26T02:42:10;9.32;;;4.50;;
72408;SDS011;60402;48.082;11.628;2023-06-26T02:44:56;9.65;;;5.20;;
72408;SDS011;60402;48.082;11.628;2023-06-26T02:47:42;9.48;;;4.53;;
72408;SDS011;60402;48.082;11.628;2023-06-26T02:50:28;9.82;;;4.95;;
72408;SDS011;60402;48.082;11.628;2023-06-26T02:53:13;10.93;;;5.35;;
72408;SDS011;60402;48.082;11.628;2023-06-26T02:55:59;8.55;;;4.40;;
72408;SDS011;60402;48.082;11.628;2023-06-26T02:58:45;10.45;;;5.13;;
72408;SDS011;60402;48.082;11.628;2023-06-26T03:01:30;10.57;;;4.80;;
72408;SDS011;60402;48.082;11.628;2023-06-26T03:04:16;10.48;;;4.60;;
72408;SDS011;60402;48.082;11.628;2023-06-26T03:07:03;10.48;;;5.13;;
72408;SDS011;60402;48.082;11.628;2023-06-26T03:09:49;11.38;;;5.00;;
72408;SDS011;60402;48.082;11.628;2023-06-26T03:12:35;9.25;;;4.78;;
72408;SDS011;60402;48.082;11.628;2023-06-26T03:15:20;9.13;;;4.93;;
72408;SDS011;60402;48.082;11.628;2023-06-26T03:18:06;9.32;;;4.70;;
72408;SDS011;60402;48.082;11.628;2023-06-26T03:20:52;11.35;;;5.35;;
72408;SDS011;60402;48.082;11.628;2023-06-26T03:23:41;11.75;;;5.15;;
72408;SDS011;60402;48.082;11.628;2023-06-26T03:26:27;9.85;;;4.75;;
72408;SDS011;60402;48.082;11.628;2023-06-26T03:29:13;10.45;;;5.07;;
72408;SDS011;60402;48.082;11.628;2023-06-26T03:31:59;10.82;;;4.75;;
72408;SDS011;60402;48.082;11.628;2023-06-26T03:34:45;9.57;;;4.43;;
72408;SDS011;60402;48.082;11.628;2023-06-26T03:37:31;11.23;;;5.32;;
72408;SDS011;60402;48.082;11.628;2023-06-26T03:40:17;10.73;;;5.13;;
72408;SDS011;60402;48.082;11.628;2023-06-26T03:43:02;11.70;;;5.70;;
72408;SDS011;60402;48.082;11.628;2023-06-26T03:45:48;10.45;;;5.15;;
72408;SDS011;60402;48.082;11.628;2023-06-26T03:48:34;11.18;;;5.10;;
72408;SDS011;60402;48.082;11.628;2023-06-26T03:51:19;9.50;;;4.57;;
72408;SDS011;60402;48.082;11.628;2023-06-26T03:54:05;11.20;;;5.13;;
72408;SDS011;60402;48.082;11.628;2023-06-26T03:56:51;9.80;;;5.32;;
72408;SDS011;60402;48.082;11.628;2023-06-26T03:59:37;10.10;;;4.95;;
72408;SDS011;60402;48.082;11.628;2023-06-26T04:02:22;11.40;;;5.35;;
72408;SDS011;60402;48.082;11.628;2023-06-26T04:05:08;11.75;;;5.00;;
72408;SDS011;60402;48.082;11.628;2023-06-26T04:07:54;11.98;;;5.25;;
72408;SDS011;60402;48.082;11.628;2023-06-26T04:10:39;11.20;;;5.15;;
72408;SDS011;60402;48.082;11.628;2023-06-26T04:13:25;10.93;;;5.35;;
72408;SDS011;60402;48.082;11.628;2023-06-26T04:16:11;9.48;;;4.82;;
72408;SDS011;60402;48.082;11.628;2023-06-26T04:18:57;10.18;;;5.25;;
72408;SDS011;60402;48.082;11.628;2023-06-26T04:21:42;11.05;;;5.35;;
72408;SDS011;60402;48.082;11.628;2023-06-26T04:24:28;11.35;;;4.82;;
72408;SDS011;60402;48.082;11.628;2023-06-26T04:27:14;10.38;;;4.88;;
72408;SDS011;60402;48.082;11.628;2023-06-26T04:29:59;9.32;;;4.68;;
72408;SDS011;60402;48.082;11.628;2023-06-26T04:32:45;10.07;;;4.97;;
72408;SDS011;60402;48.082;11.628;2023-06-26T04:35:30;10.80;;;4.97;;
72408;SDS011;60402;48.082;11.628;2023-06-26T04:38:16;11.20;;;5.07;;
72408;SDS011;60402;48.082;11.628;2023-06-26T04:41:02;10.82;;;4.95;;
72408;SDS011;60402;48.082;11.628;2023-06-26T04:43:48;10.70;;;5.18;;
72408;SDS011;60402;48.082;11.628;2023-06-26T04:46:33;10.23;;;4.93;;
72408;SDS011;60402;48.082;11.628;2023-06-26T04:49:19;9.90;;;4.93;;
72408;SDS011;60402;48.082;11.628;2023-06-26T04:52:05;11.45;;;4.80;;
72408;SDS011;60402;48.082;11.628;2023-06-26T04:54:50;13.30;;;5.47;;
72408;SDS011;60402;48.082;11.628;2023-06-26T04:57:37;10.48;;;4.97;;
72408;SDS011;60402;48.082;11.628;2023-06-26T05:00:22;10.52;;;5.45;;
72408;SDS011;60402;48.082;11.628;2023-06-26T05:03:11;8.95;;;4.68;;
72408;SDS011;60402;48.082;11.628;2023-06-26T05:05:57;9.63;;;4.95;;
72408;SDS011;60402;48.082;11.628;2023-06-26T05:08:43;9.98;;;4.55;;
72408;SDS011;60402;48.082;11.628;2023-06-26T05:11:28;9.73;;;4.90;;
72408;SDS011;60402;48.082;11.628;2023-06-26T05:14:14;9.45;;;4.80;;
72408;SDS011;60402;48.082;11.628;2023-06-26T05:17:00;10.88;;;5.30;;
72408;SDS011;60402;48.082;11.628;2023-06-26T05:19:45;9.82;;;4.60;;
72408;SDS011;60402;48.082;11.628;2023-06-26T05:22:32;12.23;;;5.00;;
72408;SDS011;60402;48.082;11.628;2023-06-26T05:25:19;9.82;;;5.40;;
72408;SDS011;60402;48.082;11.628;2023-06-26T05:28:08;9.52;;;4.63;;
72408;SDS011;60402;48.082;11.628;2023-06-26T05:33:43;10.48;;;4.53;;
72408;SDS011;60402;48.082;11.628;2023-06-26T05:39:18;10.40;;;5.03;;
72408;SDS011;60402;48.082;11.628;2023-06-26T05:42:04;9.55;;;4.95;;
72408;SDS011;60402;48.082;11.628;2023-06-26T05:44:50;10.45;;;5.03;;
72408;SDS011;60402;48.082;11.628;2023-06-26T05:47:36;10.30;;;5.38;;
72408;SDS011;60402;48.082;11.628;2023-06-26T05:50:22;9.73;;;4.65;;
72408;SDS011;60402;48.082;11.628;2023-06-26T05:53:08;11.35;;;5.30;;
72408;SDS011;60402;48.082;11.628;2023-06-26T05:55:54;9.32;;;4.63;;
72408;SDS011;60402;48.082;11.628;2023-06-26T05:58:40;9.43;;;4.78;;
72408;SDS011;60402;48.082;11.628;2023-06-26T06:01:27;9.40;;;4.80;;
72408;SDS011;60402;48.082;11.628;2023-06-26T06:04:13;8.57;;;4.25;;
72408;SDS011;60402;48.082;11.628;2023-06-26T06:06:58;8.77;;;4.68;;
72408;SDS011;60402;48.082;11.628;2023-06-26T06:09:44;8.95;;;4.32;;
72408;SDS011;60402;48.082;11.628;2023-06-26T06:12:30;9.55;;;4.72;;
72408;SDS011;60402;48.082;11.628;2023-06-26T06:15:16;8.32;;;4.13;;
72408;SDS011;60402;48.082;11.628;2023-06-26T06:18:01;8.52;;;4.55;;
72408;SDS011;60402;48.082;11.628;2023-06-26T06:20:47;9.10;;;4.40;;
72408;SDS011;60402;48.082;11.628;2023-06-26T06:23:33;8.88;;;4.45;;
72408;SDS011;60402;48.082;11.628;2023-06-26T06:26:19;9.68;;;4.68;;
72408;SDS011;60402;48.082;11.628;2023-06-26T06:29:04;8.13;;;4.07;;
72408;SDS011;60402;48.082;11.628;2023-06-26T06:31:51;8.80;;;4.20;;
72408;SDS011;60402;48.082;11.628;2023-06-26T06:34:36;9.68;;;4.60;;
72408;SDS011;60402;48.082;11.628;2023-06-26T06:37:22;8.85;;;4.25;;
72408;SDS011;60402;48.082;11.628;2023-06-26T06:40:11;10.40;;;4.20;;
72408;SDS011;60402;48.082;11.628;2023-06-26T06:42:57;7.95;;;3.97;;
72408;SDS011;60402;48.082;11.628;2023-06-26T06:45:44;8.13;;;3.83;;
72408;SDS011;60402;48.082;11.628;2023-06-26T06:48:30;7.80;;;4.13;;
72408;SDS011;60402;48.082;11.628;2023-06-26T06:51:16;7.72;;;3.90;;
72408;SDS011;60402;48.082;11.628;2023-06-26T06:54:02;7.35;;;3.95;;
72408;SDS011;60402;48.082;11.628;2023-06-26T06:56:48;8.23;;;4.22;;
72408;SDS011;60402;48.082;11.628;2023-06-26T06:59:33;9.02;;;4.13;;
72408;SDS011;60402;48.082;11.628;2023-06-26T07:02:19;7.15;;;3.78;;
72408;SDS011;60402;48.082;11.628;2023-06-26T07:05:05;7.88;;;3.75;;
72408;SDS011;60402;48.082;11.628;2023-06-26T07:07:51;7.97;;;3.80;;
72408;SDS011;60402;48.082;11.628;2023-06-26T07:10:37;8.15;;;4.05;;
72408;SDS011;60402;48.082;11.628;2023-06-26T07:13:23;7.53;;;4.13;;
72408;SDS011;60402;48.082;11.628;2023-06-26T07:16:09;7.55;;;4.18;;
72408;SDS011;60402;48.082;11.628;2023-06-26T07:18:56;7.63;;;4.10;;
72408;SDS011;60402;48.082;11.628;2023-06-26T07:21:42;8.07;;;4.35;;
72408;SDS011;60402;48.082;11.628;2023-06-26T07:24:29;7.13;;;3.78;;
72408;SDS011;60402;48.082;11.628;2023-06-26T07:27:15;7.28;;;4.03;;
72408;SDS011;60402;48.082;11.628;2023-06-26T07:30:01;7.80;;;4.03;;
72408;SDS011;60402;48.082;11.628;2023-06-26T07:32:47;6.93;;;3.92;;
72408;SDS011;60402;48.082;11.628;2023-06-26T07:35:33;7.40;;;3.92;;
72408;SDS011;60402;48.082;11.628;2023-06-26T07:38:19;7.28;;;3.95;;
72408;SDS011;60402;48.082;11.628;2023-06-26T07:41:04;10.00;;;4.20;;
72408;SDS011;60402;48.082;11.628;2023-06-26T07:43:50;7.22;;;3.80;;
72408;SDS011;60402;48.082;11.628;2023-06-26T07:46:35;6.90;;;3.58;;
72408;SDS011;60402;48.082;11.628;2023-06-26T07:49:21;7.88;;;3.85;;
72408;SDS011;60402;48.082;11.628;2023-06-26T07:52:07;6.90;;;3.95;;
72408;SDS011;60402;48.082;11.628;2023-06-26T07:54:56;7.07;;;4.30;;
72408;SDS011;60402;48.082;11.628;2023-06-26T07:57:42;6.57;;;3.95;;
72408;SDS011;60402;48.082;11.628;2023-06-26T08:00:27;6.85;;;3.75;;
72408;SDS011;60402;48.082;11.628;2023-06-26T08:03:13;7.90;;;4.30;;
72408;SDS011;60402;48.082;11.628;2023-06-26T08:05:59;6.70;;;3.90;;
72408;SDS011;60402;48.082;11.628;2023-06-26T08:08:45;6.53;;;3.67;;
72408;SDS011;60402;48.082;11.628;2023-06-26T08:11:30;6.68;;;3.70;;
72408;SDS011;60402;48.082;11.628;2023-06-26T08:14:16;7.07;;;3.70;;
72408;SDS011;60402;48.082;11.628;2023-06-26T08:17:02;7.40;;;4.35;;
72408;SDS011;60402;48.082;11.628;2023-06-26T08:19:48;7.20;;;3.90;;
72408;SDS011;60402;48.082;11.628;2023-06-26T08:22:33;10.05;;;4.28;;
72408;SDS011;60402;48.082;11.628;2023-06-26T08:25:20;6.85;;;3.80;;
72408;SDS011;60402;48.082;11.628;2023-06-26T08:28:06;8.23;;;4.03;;
72408;SDS011;60402;48.082;11.628;2023-06-26T08:30:51;6.53;;;4.05;;
72408;SDS011;60402;48.082;11.628;2023-06-26T08:33:38;7.75;;;4.55;;
72408;SDS011;60402;48.082;11.628;2023-06-26T08:36:23;6.97;;;4.10;;
72408;SDS011;60402;48.082;11.628;2023-06-26T08:39:09;7.40;;;3.90;;
72408;SDS011;60402;48.082;11.628;2023-06-26T08:41:55;7.07;;;4.03;;
72408;SDS011;60402;48.082;11.628;2023-06-26T08:44:40;7.35;;;3.70;;
72408;SDS011;60402;48.082;11.628;2023-06-26T08:47:26;7.25;;;4.40;;
72408;SDS011;60402;48.082;11.628;2023-06-26T08:50:12;7.25;;;4.13;;
72408;SDS011;60402;48.082;11.628;2023-06-26T08:53:02;8.40;;;4.03;;
72408;SDS011;60402;48.082;11.628;2023-06-26T08:55:55;7.07;;;4.15;;
72408;SDS011;60402;48.082;11.628;2023-06-26T08:58:43;6.97;;;4.03;;
72408;SDS011;60402;48.082;11.628;2023-06-26T09:01:30;7.10;;;3.85;;
72408;SDS011;60402;48.082;11.628;2023-06-26T09:07:02;6.30;;;3.58;;
72408;SDS011;60402;48.082;11.628;2023-06-26T09:09:48;6.72;;;4.00;;
72408;SDS011;60402;48.082;11.628;2023-06-26T09:12:34;6.90;;;3.67;;
72408;SDS011;60402;48.082;11.628;2023-06-26T09:15:20;7.70;;;4.10;;
72408;SDS011;60402;48.082;11.628;2023-06-26T09:18:05;7.65;;;3.80;;
72408;SDS011;60402;48.082;11.628;2023-06-26T09:20:51;5.95;;;3.60;;
72408;SDS011;60402;48.082;11.628;2023-06-26T09:23:39;6.03;;;3.25;;
72408;SDS011;60402;48.082;11.628;2023-06-26T09:26:25;7.35;;;3.70;;
72408;SDS011;60402;48.082;11.628;2023-06-26T09:29:10;5.53;;;2.97;;
72408;SDS011;60402;48.082;11.628;2023-06-26T09:31:59;6.55;;;3.30;;
72408;SDS011;60402;48.082;11.628;2023-06-26T09:34:45;7.32;;;3.63;;
72408;SDS011;60402;48.082;11.628;2023-06-26T09:37:36;6.30;;;3.40;;
72408;SDS011;60402;48.082;11.628;2023-06-26T09:40:23;7.30;;;3.90;;
72408;SDS011;60402;48.082;11.628;2023-06-26T09:43:09;6.75;;;3.70;;
72408;SDS011;60402;48.082;11.628;2023-06-26T09:45:58;6.30;;;3.50;;
72408;SDS011;60402;48.082;11.628;2023-06-26T09:48:45;6.60;;;3.67;;
72408;SDS011;60402;48.082;11.628;2023-06-26T09:51:32;6.43;;;3.70;;
72408;SDS011;60402;48.082;11.628;2023-06-26T09:54:21;5.60;;;3.20;;
72408;SDS011;60402;48.082;11.628;2023-06-26T09:57:07;6.28;;;3.45;;
72408;SDS011;60402;48.082;11.628;2023-06-26T09:59:54;7.10;;;3.38;;
72408;SDS011;60402;48.082;11.628;2023-06-26T10:02:39;5.47;;;3.33;;
72408;SDS011;60402;48.082;11.628;2023-06-26T10:05:25;7.35;;;3.67;;
72408;SDS011;60402;48.082;11.628;2023-06-26T10:08:12;6.90;;;3.42;;
72408;SDS011;60402;48.082;11.628;2023-06-26T10:13:45;5.60;;;3.00;;
72408;SDS011;60402;48.082;11.628;2023-06-26T10:16:34;6.60;;;3.00;;
72408;SDS011;60402;48.082;11.628;2023-06-26T10:19:22;5.22;;;2.70;;
72408;SDS011;60402;48.082;11.628;2023-06-26T10:22:12;6.10;;;2.58;;
72408;SDS011;60402;48.082;11.628;2023-06-26T10:25:00;5.13;;;2.80;;
72408;SDS011;60402;48.082;11.628;2023-06-26T10:27:53;5.40;;;3.00;;
72408;SDS011;60402;48.082;11.628;2023-06-26T10:30:41;5.70;;;2.95;;
72408;SDS011;60402;48.082;11.628;2023-06-26T10:33:30;5.88;;;3.00;;
72408;SDS011;60402;48.082;11.628;2023-06-26T10:36:17;5.15;;;2.65;;
72408;SDS011;60402;48.082;11.628;2023-06-26T10:39:05;6.57;;;3.30;;
72408;SDS011;60402;48.082;11.628;2023-06-26T10:41:51;6.55;;;3.30;;
72408;SDS011;60402;48.082;11.628;2023-06-26T10:44:43;5.90;;;2.75;;
72408;SDS011;60402;48.082;11.628;2023-06-26T10:47:30;4.75;;;2.55;;
72408;SDS011;60402;48.082;11.628;2023-06-26T10:50:25;5.15;;;2.65;;
72408;SDS011;60402;48.082;11.628;2023-06-26T10:56:04;6.53;;;3.30;;
72408;SDS011;60402;48.082;11.628;2023-06-26T10:58:50;6.10;;;2.92;;
72408;SDS011;60402;48.082;11.628;2023-06-26T11:01:40;4.97;;;2.70;;
72408;SDS011;60402;48.082;11.628;2023-06-26T11:07:23;4.78;;;2.80;;
72408;SDS011;60402;48.082;11.628;2023-06-26T11:10:10;6.13;;;3.22;;
72408;SDS011;60402;48.082;11.628;2023-06-26T11:12:57;5.45;;;2.83;;
72408;SDS011;60402;48.082;11.628;2023-06-26T11:15:43;6.22;;;3.13;;
72408;SDS011;60402;48.082;11.628;2023-06-26T11:18:30;5.07;;;2.80;;
72408;SDS011;60402;48.082;11.628;2023-06-26T11:21:17;5.97;;;3.13;;
72408;SDS011;60402;48.082;11.628;2023-06-26T11:24:06;9.30;;;3.28;;
72408;SDS011;60402;48.082;11.628;2023-06-26T11:26:53;6.20;;;3.35;;
72408;SDS011;60402;48.082;11.628;2023-06-26T11:29:39;6.13;;;3.25;;
72408;SDS011;60402;48.082;11.628;2023-06-26T11:32:36;6.00;;;3.10;;
72408;SDS011;60402;48.082;11.628;2023-06-26T11:35:23;5.95;;;3.20;;
72408;SDS011;60402;48.082;11.628;2023-06-26T11:38:15;6.30;;;3.13;;
72408;SDS011;60402;48.082;11.628;2023-06-26T11:41:01;7.28;;;3.28;;
72408;SDS011;60402;48.082;11.628;2023-06-26T11:43:46;6.13;;;3.25;;
72408;SDS011;60402;48.082;11.628;2023-06-26T11:46:33;5.93;;;3.13;;
72408;SDS011;60402;48.082;11.628;2023-06-26T11:49:20;6.30;;;3.47;;
72408;SDS011;60402;48.082;11.628;2023-06-26T11:52:08;6.78;;;3.40;;
72408;SDS011;60402;48.082;11.628;2023-06-26T11:54:57;6.15;;;3.25;;
72408;SDS011;60402;48.082;11.628;2023-06-26T11:57:47;5.63;;;3.50;;
72408;SDS011;60402;48.082;11.628;2023-06-26T12:00:33;6.63;;;3.63;;
72408;SDS011;60402;48.082;11.628;2023-06-26T12:03:19;5.70;;;3.08;;
72408;SDS011;60402;48.082;11.628;2023-06-26T12:06:05;6.88;;;3.90;;
72408;SDS011;60402;48.082;11.628;2023-06-26T12:08:52;6.47;;;3.60;;
72408;SDS011;60402;48.082;11.628;2023-06-26T12:11:38;6.43;;;3.30;;
72408;SDS011;60402;48.082;11.628;2023-06-26T12:14:26;6.20;;;3.72;;
72408;SDS011;60402;48.082;11.628;2023-06-26T12:17:15;7.38;;;3.78;;
72408;SDS011;60402;48.082;11.628;2023-06-26T12:20:02;9.20;;;3.95;;
72408;SDS011;60402;48.082;11.628;2023-06-26T12:22:50;6.32;;;3.72;;
72408;SDS011;60402;48.082;11.628;2023-06-26T12:25:36;7.15;;;3.75;;
72408;SDS011;60402;48.082;11.628;2023-06-26T12:28:22;6.20;;;3.88;;
72408;SDS011;60402;48.082;11.628;2023-06-26T12:31:17;8.73;;;3.65;;
72408;SDS011;60402;48.082;11.628;2023-06-26T12:34:12;7.43;;;3.67;;
72408;SDS011;60402;48.082;11.628;2023-06-26T12:37:03;7.95;;;4.20;;
72408;SDS011;60402;48.082;11.628;2023-06-26T12:39:51;6.22;;;3.72;;
72408;SDS011;60402;48.082;11.628;2023-06-26T12:42:42;6.47;;;3.78;;
72408;SDS011;60402;48.082;11.628;2023-06-26T12:45:27;6.30;;;3.50;;
72408;SDS011;60402;48.082;11.628;2023-06-26T12:48:42;6.43;;;3.53;;
72408;SDS011;60402;48.082;11.628;2023-06-26T12:51:29;5.55;;;3.20;;
72408;SDS011;60402;48.082;11.628;2023-06-26T12:54:15;7.70;;;3.88;;
72408;SDS011;60402;48.082;11.628;2023-06-26T12:57:00;7.65;;;3.97;;
72408;SDS011;60402;48.082;11.628;2023-06-26T12:59:46;7.00;;;3.88;;
72408;SDS011;60402;48.082;11.628;2023-06-26T13:02:32;6.88;;;3.90;;
72408;SDS011;60402;48.082;11.628;2023-06-26T13:05:18;7.22;;;3.70;;
72408;SDS011;60402;48.082;11.628;2023-06-26T13:08:04;6.72;;;3.90;;
72408;SDS011;60402;48.082;11.628;2023-06-26T13:10:50;9.10;;;4.00;;
72408;SDS011;60402;48.082;11.628;2023-06-26T13:13:35;6.68;;;3.90;;
72408;SDS011;60402;48.082;11.628;2023-06-26T13:16:21;6.88;;;3.40;;
72408;SDS011;60402;48.082;11.628;2023-06-26T13:19:07;6.93;;;3.75;;
72408;SDS011;60402;48.082;11.628;2023-06-26T13:21:52;9.23;;;4.07;;
72408;SDS011;60402;48.082;11.628;2023-06-26T13:24:39;6.50;;;3.90;;
72408;SDS011;60402;48.082;11.628;2023-06-26T13:27:24;7.30;;;3.80;;
72408;SDS011;60402;48.082;11.628;2023-06-26T13:30:10;7.05;;;3.85;;
72408;SDS011;60402;48.082;11.628;2023-06-26T13:32:56;7.43;;;4.25;;
72408;SDS011;60402;48.082;11.628;2023-06-26T13:35:42;6.75;;;4.22;;
72408;SDS011;60402;48.082;11.628;2023-06-26T13:38:27;6.90;;;3.70;;
72408;SDS011;60402;48.082;11.628;2023-06-26T13:41:13;7.10;;;4.00;;
72408;SDS011;60402;48.082;11.628;2023-06-26T13:43:59;7.57;;;4.20;;
72408;SDS011;60402;48.082;11.628;2023-06-26T13:46:44;7.13;;;4.32;;
72408;SDS011;60402;48.082;11.628;2023-06-26T13:49:30;7.80;;;4.20;;
72408;SDS011;60402;48.082;11.628;2023-06-26T13:52:16;7.97;;;4.43;;
72408;SDS011;60402;48.082;11.628;2023-06-26T13:55:02;7.38;;;4.45;;
72408;SDS011;60402;48.082;11.628;2023-06-26T13:57:50;7.78;;;4.55;;
72408;SDS011;60402;48.082;11.628;2023-06-26T14:00:36;7.43;;;3.97;;
72408;SDS011;60402;48.082;11.628;2023-06-26T14:03:22;6.38;;;3.85;;
72408;SDS011;60402;48.082;11.628;2023-06-26T14:06:08;8.02;;;4.25;;
72408;SDS011;60402;48.082;11.628;2023-06-26T14:08:53;8.48;;;4.38;;
72408;SDS011;60402;48.082;11.628;2023-06-26T14:11:39;7.13;;;4.05;;
72408;SDS011;60402;48.082;11.628;2023-06-26T14:14:25;6.80;;;3.80;;
72408;SDS011;60402;48.082;11.628;2023-06-26T14:17:11;7.20;;;4.18;;
72408;SDS011;60402;48.082;11.628;2023-06-26T14:20:01;7.72;;;3.97;;
72408;SDS011;60402;48.082;11.628;2023-06-26T14:22:48;7.90;;;4.15;;
72408;SDS011;60402;48.082;11.628;2023-06-26T14:25:34;7.07;;;4.30;;
72408;SDS011;60402;48.082;11.628;2023-06-26T14:28:20;7.53;;;4.30;;
72408;SDS011;60402;48.082;11.628;2023-06-26T14:31:05;8.10;;;4.13;;
72408;SDS011;60402;48.082;11.628;2023-06-26T14:33:51;9.20;;;4.35;;
72408;SDS011;60402;48.082;11.628;2023-06-26T14:36:37;8.43;;;4.35;;
72408;SDS011;60402;48.082;11.628;2023-06-26T14:39:23;8.30;;;4.43;;
72408;SDS011;60402;48.082;11.628;2023-06-26T14:42:08;7.80;;;4.30;;
72408;SDS011;60402;48.082;11.628;2023-06-26T14:44:54;7.15;;;4.22;;
72408;SDS011;60402;48.082;11.628;2023-06-26T14:47:40;7.80;;;4.07;;
72408;SDS011;60402;48.082;11.628;2023-06-26T14:50:25;7.40;;;4.47;;
72408;SDS011;60402;48.082;11.628;2023-06-26T14:53:11;6.78;;;4.13;;
72408;SDS011;60402;48.082;11.628;2023-06-26T14:55:57;7.93;;;3.97;;
72408;SDS011;60402;48.082;11.628;2023-06-26T14:58:42;8.10;;;4.10;;
72408;SDS011;60402;48.082;11.628;2023-06-26T15:01:28;6.93;;;4.03;;
72408;SDS011;60402;48.082;11.628;2023-06-26T15:07:00;7.45;;;4.15;;
72408;SDS011;60402;48.082;11.628;2023-06-26T15:09:46;7.38;;;4.00;;
72408;SDS011;60402;48.082;11.628;2023-06-26T15:12:32;9.30;;;4.55;;
72408;SDS011;60402;48.082;11.628;2023-06-26T15:15:18;7.30;;;4.07;;
72408;SDS011;60402;48.082;11.628;2023-06-26T15:18:04;7.00;;;3.95;;
72408;SDS011;60402;48.082;11.628;2023-06-26T15:20:51;8.15;;;3.90;;
72408;SDS011;60402;48.082;11.628;2023-06-26T15:23:37;7.53;;;4.05;;
72408;SDS011;60402;48.082;11.628;2023-06-26T15:26:24;7.93;;;4.10;;
72408;SDS011;60402;48.082;11.628;2023-06-26T15:29:09;7.38;;;3.88;;
72408;SDS011;60402;48.082;11.628;2023-06-26T15:31:55;6.90;;;3.75;;
72408;SDS011;60402;48.082;11.628;2023-06-26T15:34:40;7.43;;;4.10;;
72408;SDS011;60402;48.082;11.628;2023-06-26T15:37:26;9.10;;;4.18;;
72408;SDS011;60402;48.082;11.628;2023-06-26T15:40:12;8.05;;;4.03;;
72408;SDS011;60402;48.082;11.628;2023-06-26T15:42:58;7.78;;;4.15;;
72408;SDS011;60402;48.082;11.628;2023-06-26T15:45:43;6.25;;;3.63;;
72408;SDS011;60402;48.082;11.628;2023-06-26T15:48:29;8.02;;;4.40;;
72408;SDS011;60402;48.082;11.628;2023-06-26T15:51:15;9.68;;;4.40;;
72408;SDS011;60402;48.082;11.628;2023-06-26T15:54:00;6.47;;;3.78;;
72408;SDS011;60402;48.082;11.628;2023-06-26T15:56:46;6.57;;;4.05;;
72408;SDS011;60402;48.082;11.628;2023-06-26T15:59:32;7.38;;;3.92;;
72408;SDS011;60402;48.082;11.628;2023-06-26T16:02:17;8.00;;;4.35;;
72408;SDS011;60402;48.082;11.628;2023-06-26T16:05:04;7.18;;;4.22;;
72408;SDS011;60402;48.082;11.628;2023-06-26T16:07:50;8.52;;;4.55;;
72408;SDS011;60402;48.082;11.628;2023-06-26T16:10:35;9.25;;;4.65;;
72408;SDS011;60402;48.082;11.628;2023-06-26T16:13:21;8.13;;;4.30;;
72408;SDS011;60402;48.082;11.628;2023-06-26T16:16:07;9.20;;;4.90;;
72408;SDS011;60402;48.082;11.628;2023-06-26T16:18:53;7.03;;;4.38;;
72408;SDS011;60402;48.082;11.628;2023-06-26T16:21:39;7.75;;;4.43;;
72408;SDS011;60402;48.082;11.628;2023-06-26T16:24:24;8.75;;;5.00;;
72408;SDS011;60402;48.082;11.628;2023-06-26T16:27:10;11.90;;;4.53;;
72408;SDS011;60402;48.082;11.628;2023-06-26T16:29:56;9.30;;;4.75;;
72408;SDS011;60402;48.082;11.628;2023-06-26T16:32:43;6.88;;;4.10;;
72408;SDS011;60402;48.082;11.628;2023-06-26T16:35:29;7.70;;;4.32;;
72408;SDS011;60402;48.082;11.628;2023-06-26T16:38:21;8.13;;;4.57;;
72408;SDS011;60402;48.082;11.628;2023-06-26T16:41:07;8.13;;;4.68;;
72408;SDS011;60402;48.082;11.628;2023-06-26T16:43:53;8.35;;;5.00;;
72408;SDS011;60402;48.082;11.628;2023-06-26T16:46:39;9.07;;;4.78;;
72408;SDS011;60402;48.082;11.628;2023-06-26T16:49:25;9.55;;;4.60;;